OOCL Houston — VRDE7 — position and weather

sailwx.info

Track history (hours):
 
Tides and Currents Weather Stations Pressure Air Temp Water Temp Dewpoint Dewpoint Depression Visibility Wind Speed Wind Dir Waves Ship Positions

OOCL Houston

Last reported at 2018-Jun-28 03:45 UTC. Time now 2018-Jul-19 11:51 UTC.
Position N 22°29' E 119°35'.
Warning: this ship's position is 21 days out of date.

Length 260 m; draft 8.2 m.

Type: Cargo ship. MMSI: 477958300.

Date/timePositionNaut miles runAvg speedWind from/ knotsBaromVisibWave heightAir tempDewpointWater temp
2018-Jun-28 03:45N 22°29' E 119°35'414.1
2018-Jun-28 03:28N 22°30' E 119°40'713.9
2018-Jun-28 03:00N 22°30' E 119°47'713.4
2018-Jun-28 02:30N 22°31' E 119°54'511.0
2018-Jun-28 02:00N 22°32' E 119°60'611.3
2018-Jun-28 01:30N 22°32' E 120°06'611.5
2018-Jun-28 01:00N 22°33' E 120°12'611.2
2018-Jun-28 00:30N 22°33' E 120°18'1 1.9
2018-Jun-28 00:00N 22°34' E 120°19'1 1.1
2018-Jun-27 23:25N 22°34' E 120°18'0 0.0
2018-Jun-27 23:01N 22°34' E 120°18'0 0.0
2018-Jun-27 22:31N 22°34' E 120°18'0 0.0
2018-Jun-27 22:01N 22°34' E 120°18'0 0.0
2018-Jun-27 21:30N 22°34' E 120°18'0 0.0
2018-Jun-27 21:01N 22°34' E 120°18'0 0.0
2018-Jun-27 20:30N 22°34' E 120°18'0 0.0
2018-Jun-27 20:00N 22°34' E 120°18'0 0.0
2018-Jun-27 19:24N 22°34' E 120°18'0 0.0
2018-Jun-27 19:00N 22°34' E 120°18'0 0.0
2018-Jun-27 18:30N 22°34' E 120°18'0 0.0
2018-Jun-27 18:00N 22°34' E 120°18'0 0.0
2018-Jun-27 17:30N 22°34' E 120°18'0 0.0
2018-Jun-27 17:00N 22°34' E 120°18'0 0.1
2018-Jun-27 16:30N 22°34' E 120°18'0 0.1
2018-Jun-27 15:55N 22°34' E 120°18'0 0.0
2018-Jun-27 15:30N 22°34' E 120°18'0 0.7
2018-Jun-27 15:00N 22°34' E 120°19'3 5.6
2018-Jun-27 14:30N 22°32' E 120°16'4 7.7
2018-Jun-27 14:00N 22°31' E 120°12'4 8.0
2018-Jun-27 13:30N 22°34' E 120°09'714.5
2018-Jun-27 13:00N 22°41' E 120°06'815.5
2018-Jun-27 12:30N 22°48' E 120°02'5316.7
2018-Jun-27 09:20N 23°40' E 119°55'516.4
2018-Jun-27 09:00N 23°45' E 119°57'918.2
2018-Jun-27 08:30N 23°53' E 120°02'1018.8
2018-Jun-27 07:59N 24°01' E 120°08'918.5
2018-Jun-27 07:30N 24°09' E 120°13'918.5
2018-Jun-27 07:00N 24°17' E 120°18'918.2
2018-Jun-27 06:30N 24°25' E 120°23'  
2018-Jun-24 07:38N 33°47' E 134°51'416.2
2018-Jun-24 07:22N 33°50' E 134°54'615.8
2018-Jun-24 07:00N 33°56' E 134°55'816.0
2018-Jun-24 06:30N 34°04' E 134°56'816.2
2018-Jun-24 06:00N 34°12' E 134°57'612.5
2018-Jun-24 05:30N 34°18' E 134°59'918.4
2018-Jun-24 05:00N 34°26' E 135°05'1019.8
2018-Jun-24 04:30N 34°32' E 135°14'917.8
2018-Jun-24 04:00N 34°38' E 135°22'3 0.9
2018-Jun-24 00:10N 34°38' E 135°26'0 0.0
2018-Jun-23 23:52N 34°38' E 135°26'0 0.0
2018-Jun-23 23:10N 34°38' E 135°26'0 0.0
2018-Jun-23 22:58N 34°38' E 135°26'0 0.1
2018-Jun-23 22:28N 34°38' E 135°26'2 3.4
2018-Jun-23 22:00N 34°39' E 135°25'510.0
2018-Jun-23 21:31N 34°36' E 135°19'510.3
2018-Jun-23 21:01N 34°39' E 135°15'0 0.1
2018-Jun-23 20:26N 34°39' E 135°15'0 0.0
2018-Jun-23 19:56N 34°39' E 135°15'0 0.0
2018-Jun-23 19:29N 34°39' E 135°15'0 0.0
2018-Jun-23 18:56N 34°39' E 135°15'0 0.0
2018-Jun-23 18:26N 34°39' E 135°15'0 0.0
2018-Jun-23 17:56N 34°39' E 135°15'0 0.0
2018-Jun-23 17:20N 34°39' E 135°15'0 0.0
2018-Jun-23 16:56N 34°39' E 135°15'0 0.0
2018-Jun-23 16:26N 34°39' E 135°15'0 0.0
2018-Jun-23 15:56N 34°39' E 135°15'0 0.0
2018-Jun-23 15:29N 34°39' E 135°15'0 0.0
2018-Jun-23 14:56N 34°39' E 135°15'0 0.0
2018-Jun-23 14:29N 34°39' E 135°15'0 0.0
2018-Jun-23 13:56N 34°39' E 135°15'0 0.0
2018-Jun-23 13:29N 34°39' E 135°15'0 0.0
2018-Jun-23 12:59N 34°39' E 135°15'0 0.0
2018-Jun-23 12:26N 34°39' E 135°15'0 1.1
2018-Jun-23 12:00N 34°39' E 135°15'3 5.9
2018-Jun-23 11:30N 34°36' E 135°16'510.3
2018-Jun-23 11:00N 34°32' E 135°13'816.1
2018-Jun-23 10:30N 34°26' E 135°06'1019.6
2018-Jun-23 10:00N 34°18' E 134°59'917.1
2018-Jun-23 09:30N 34°10' E 134°59'5 9.3
2018-Jun-23 09:00N 34°05' E 134°59'4 7.5
2018-Jun-23 08:31N 34°01' E 134°59'510.1
2018-Jun-23 08:00N 33°56' E 134°59'510.6
2018-Jun-23 07:30N 33°51' E 134°59'5 9.8
2018-Jun-23 07:00N 33°47' E 135°02'610.8
2018-Jun-23 06:30N 33°43' E 135°07'611.6
2018-Jun-23 05:58N 33°38' E 135°12'241 7.4
2018-Jun-21 21:13N 35°07' E 139°44'316.0
2018-Jun-21 21:00N 35°10' E 139°45'612.1
2018-Jun-21 20:30N 35°16' E 139°45'612.8
2018-Jun-21 20:00N 35°22' E 139°42'5 9.6
2018-Jun-21 19:30N 35°27' E 139°41'1 1.3
2018-Jun-21 18:59N 35°26' E 139°41'0 0.0
2018-Jun-21 18:29N 35°26' E 139°41'0 0.0
2018-Jun-21 17:59N 35°26' E 139°41'0 0.0
2018-Jun-21 17:29N 35°26' E 139°41'0 0.0
2018-Jun-21 16:59N 35°26' E 139°41'0 0.0
2018-Jun-21 16:29N 35°26' E 139°41'0 0.0
2018-Jun-21 15:59N 35°26' E 139°41'0 0.0
2018-Jun-21 15:29N 35°26' E 139°41'0 0.0
2018-Jun-21 14:59N 35°26' E 139°41'0 0.0
2018-Jun-21 14:29N 35°26' E 139°41'0 0.0
2018-Jun-21 13:59N 35°26' E 139°41'0 0.0
2018-Jun-21 13:29N 35°26' E 139°41'0 0.0
2018-Jun-21 12:59N 35°26' E 139°41'0 0.0
2018-Jun-21 12:29N 35°26' E 139°41'0 0.0
2018-Jun-21 11:59N 35°26' E 139°41'0 0.0
2018-Jun-21 11:29N 35°26' E 139°41'1 1.1
2018-Jun-21 11:01N 35°27' E 139°41'3 6.8
2018-Jun-21 10:31N 35°27' E 139°45'713.5
2018-Jun-21 10:00N 35°32' E 139°51'611.9
2018-Jun-21 09:30N 35°37' E 139°47'0 0.2
2018-Jun-21 08:51N 35°37' E 139°47'0 0.0
2018-Jun-21 08:30N 35°37' E 139°47'0 0.0
2018-Jun-21 07:57N 35°37' E 139°47'0 0.0
2018-Jun-21 07:27N 35°37' E 139°47'0 0.0
2018-Jun-21 07:00N 35°37' E 139°47'0 0.0
2018-Jun-21 06:12N 35°37' E 139°47'0 0.0
2018-Jun-21 05:57N 35°37' E 139°47'0 0.0
2018-Jun-21 05:15N 35°37' E 139°47'0 0.0
2018-Jun-21 05:00N 35°37' E 139°47'0 0.0
2018-Jun-21 04:30N 35°37' E 139°47'0 0.0
2018-Jun-21 04:00N 35°37' E 139°47'0 0.0
2018-Jun-21 03:27N 35°37' E 139°47'0 0.0
2018-Jun-21 02:54N 35°37' E 139°47'0 0.0
2018-Jun-21 02:21N 35°37' E 139°47'0 0.0
2018-Jun-21 02:00N 35°37' E 139°47'0 0.0
2018-Jun-21 01:30N 35°37' E 139°47'0 0.0
2018-Jun-21 01:00N 35°37' E 139°47'0 0.0
2018-Jun-21 00:21N 35°37' E 139°47'0 0.0
2018-Jun-20 23:57N 35°37' E 139°47'0 1.0
2018-Jun-20 23:30N 35°36' E 139°47'4 7.7
2018-Jun-20 23:00N 35°33' E 139°50'5 9.3
2018-Jun-20 22:30N 35°29' E 139°52'612.8
2018-Jun-20 22:00N 35°24' E 139°46'612.4
2018-Jun-20 21:30N 35°18' E 139°44'612.0
2018-Jun-20 21:00N 35°13' E 139°47'5 9.6
2018-Jun-20 20:30N 35°08' E 139°46'4 8.5
2018-Jun-20 20:00N 35°04' E 139°43'4 8.9
2018-Jun-20 19:30N 35°01' E 139°40'5 8.5
2018-Jun-20 18:57N 34°57' E 139°37'1 1.7
2018-Jun-20 18:28N 34°56' E 139°37'  
Track history (hours):
 
Tides and Currents Weather Stations Pressure Air Temp Water Temp Dewpoint Dewpoint Depression Visibility Wind Speed Wind Dir Waves Ship Positions

OOCL Houston

Last reported at 2018-Jun-28 03:45 UTC. Time now 2018-Jul-19 11:51 UTC.
Position N 22°29' E 119°35'.
Warning: this ship's position is 21 days out of date.

Length 260 m; draft 8.2 m.

Type: Cargo ship. MMSI: 477958300.

Date/timePositionNaut miles runAvg speedWind from/ knotsBaromVisibWave heightAir tempDewpointWater temp
2018-Jun-28 03:45N 22°29' E 119°35'414.1
2018-Jun-28 03:28N 22°30' E 119°40'713.9
2018-Jun-28 03:00N 22°30' E 119°47'713.4
2018-Jun-28 02:30N 22°31' E 119°54'511.0
2018-Jun-28 02:00N 22°32' E 119°60'611.3
2018-Jun-28 01:30N 22°32' E 120°06'611.5
2018-Jun-28 01:00N 22°33' E 120°12'611.2
2018-Jun-28 00:30N 22°33' E 120°18'1 1.9
2018-Jun-28 00:00N 22°34' E 120°19'1 1.1
2018-Jun-27 23:25N 22°34' E 120°18'0 0.0
2018-Jun-27 23:01N 22°34' E 120°18'0 0.0
2018-Jun-27 22:31N 22°34' E 120°18'0 0.0
2018-Jun-27 22:01N 22°34' E 120°18'0 0.0
2018-Jun-27 21:30N 22°34' E 120°18'0 0.0
2018-Jun-27 21:01N 22°34' E 120°18'0 0.0
2018-Jun-27 20:30N 22°34' E 120°18'0 0.0
2018-Jun-27 20:00N 22°34' E 120°18'0 0.0
2018-Jun-27 19:24N 22°34' E 120°18'0 0.0
2018-Jun-27 19:00N 22°34' E 120°18'0 0.0
2018-Jun-27 18:30N 22°34' E 120°18'0 0.0
2018-Jun-27 18:00N 22°34' E 120°18'0 0.0
2018-Jun-27 17:30N 22°34' E 120°18'0 0.0
2018-Jun-27 17:00N 22°34' E 120°18'0 0.1
2018-Jun-27 16:30N 22°34' E 120°18'0 0.1
2018-Jun-27 15:55N 22°34' E 120°18'0 0.0
2018-Jun-27 15:30N 22°34' E 120°18'0 0.7
2018-Jun-27 15:00N 22°34' E 120°19'3 5.6
2018-Jun-27 14:30N 22°32' E 120°16'4 7.7
2018-Jun-27 14:00N 22°31' E 120°12'4 8.0
2018-Jun-27 13:30N 22°34' E 120°09'714.5
2018-Jun-27 13:00N 22°41' E 120°06'815.5
2018-Jun-27 12:30N 22°48' E 120°02'5316.7
2018-Jun-27 09:20N 23°40' E 119°55'516.4
2018-Jun-27 09:00N 23°45' E 119°57'918.2
2018-Jun-27 08:30N 23°53' E 120°02'1018.8
2018-Jun-27 07:59N 24°01' E 120°08'918.5
2018-Jun-27 07:30N 24°09' E 120°13'918.5
2018-Jun-27 07:00N 24°17' E 120°18'918.2
2018-Jun-27 06:30N 24°25' E 120°23'  
2018-Jun-24 07:38N 33°47' E 134°51'416.2
2018-Jun-24 07:22N 33°50' E 134°54'615.8
2018-Jun-24 07:00N 33°56' E 134°55'816.0
2018-Jun-24 06:30N 34°04' E 134°56'816.2
2018-Jun-24 06:00N 34°12' E 134°57'612.5
2018-Jun-24 05:30N 34°18' E 134°59'918.4
2018-Jun-24 05:00N 34°26' E 135°05'1019.8
2018-Jun-24 04:30N 34°32' E 135°14'917.8
2018-Jun-24 04:00N 34°38' E 135°22'3 0.9
2018-Jun-24 00:10N 34°38' E 135°26'0 0.0
2018-Jun-23 23:52N 34°38' E 135°26'0 0.0
2018-Jun-23 23:10N 34°38' E 135°26'0 0.0
2018-Jun-23 22:58N 34°38' E 135°26'0 0.1
2018-Jun-23 22:28N 34°38' E 135°26'2 3.4
2018-Jun-23 22:00N 34°39' E 135°25'510.0
2018-Jun-23 21:31N 34°36' E 135°19'510.3
2018-Jun-23 21:01N 34°39' E 135°15'0 0.1
2018-Jun-23 20:26N 34°39' E 135°15'0 0.0
2018-Jun-23 19:56N 34°39' E 135°15'0 0.0
2018-Jun-23 19:29N 34°39' E 135°15'0 0.0
2018-Jun-23 18:56N 34°39' E 135°15'0 0.0
2018-Jun-23 18:26N 34°39' E 135°15'0 0.0
2018-Jun-23 17:56N 34°39' E 135°15'0 0.0
2018-Jun-23 17:20N 34°39' E 135°15'0 0.0
2018-Jun-23 16:56N 34°39' E 135°15'0 0.0
2018-Jun-23 16:26N 34°39' E 135°15'0 0.0
2018-Jun-23 15:56N 34°39' E 135°15'0 0.0
2018-Jun-23 15:29N 34°39' E 135°15'0 0.0
2018-Jun-23 14:56N 34°39' E 135°15'0 0.0
2018-Jun-23 14:29N 34°39' E 135°15'0 0.0
2018-Jun-23 13:56N 34°39' E 135°15'0 0.0
2018-Jun-23 13:29N 34°39' E 135°15'0 0.0
2018-Jun-23 12:59N 34°39' E 135°15'0 0.0
2018-Jun-23 12:26N 34°39' E 135°15'0 1.1
2018-Jun-23 12:00N 34°39' E 135°15'3 5.9
2018-Jun-23 11:30N 34°36' E 135°16'510.3
2018-Jun-23 11:00N 34°32' E 135°13'816.1
2018-Jun-23 10:30N 34°26' E 135°06'1019.6
2018-Jun-23 10:00N 34°18' E 134°59'917.1
2018-Jun-23 09:30N 34°10' E 134°59'5 9.3
2018-Jun-23 09:00N 34°05' E 134°59'4 7.5
2018-Jun-23 08:31N 34°01' E 134°59'510.1
2018-Jun-23 08:00N 33°56' E 134°59'510.6
2018-Jun-23 07:30N 33°51' E 134°59'5 9.8
2018-Jun-23 07:00N 33°47' E 135°02'610.8
2018-Jun-23 06:30N 33°43' E 135°07'611.6
2018-Jun-23 05:58N 33°38' E 135°12'241 7.4
2018-Jun-21 21:13N 35°07' E 139°44'316.0
2018-Jun-21 21:00N 35°10' E 139°45'612.1
2018-Jun-21 20:30N 35°16' E 139°45'612.8
2018-Jun-21 20:00N 35°22' E 139°42'5 9.6
2018-Jun-21 19:30N 35°27' E 139°41'1 1.3
2018-Jun-21 18:59N 35°26' E 139°41'0 0.0
2018-Jun-21 18:29N 35°26' E 139°41'0 0.0
2018-Jun-21 17:59N 35°26' E 139°41'0 0.0
2018-Jun-21 17:29N 35°26' E 139°41'0 0.0
2018-Jun-21 16:59N 35°26' E 139°41'0 0.0
2018-Jun-21 16:29N 35°26' E 139°41'0 0.0
2018-Jun-21 15:59N 35°26' E 139°41'0 0.0
2018-Jun-21 15:29N 35°26' E 139°41'0 0.0
2018-Jun-21 14:59N 35°26' E 139°41'0 0.0
2018-Jun-21 14:29N 35°26' E 139°41'0 0.0
2018-Jun-21 13:59N 35°26' E 139°41'0 0.0
2018-Jun-21 13:29N 35°26' E 139°41'0 0.0
2018-Jun-21 12:59N 35°26' E 139°41'0 0.0
2018-Jun-21 12:29N 35°26' E 139°41'0 0.0
2018-Jun-21 11:59N 35°26' E 139°41'0 0.0
2018-Jun-21 11:29N 35°26' E 139°41'1 1.1
2018-Jun-21 11:01N 35°27' E 139°41'3 6.8
2018-Jun-21 10:31N 35°27' E 139°45'713.5
2018-Jun-21 10:00N 35°32' E 139°51'611.9
2018-Jun-21 09:30N 35°37' E 139°47'0 0.2
2018-Jun-21 08:51N 35°37' E 139°47'0 0.0
2018-Jun-21 08:30N 35°37' E 139°47'0 0.0
2018-Jun-21 07:57N 35°37' E 139°47'0 0.0
2018-Jun-21 07:27N 35°37' E 139°47'0 0.0
2018-Jun-21 07:00N 35°37' E 139°47'0 0.0
2018-Jun-21 06:12N 35°37' E 139°47'0 0.0
2018-Jun-21 05:57N 35°37' E 139°47'0 0.0
2018-Jun-21 05:15N 35°37' E 139°47'0 0.0
2018-Jun-21 05:00N 35°37' E 139°47'0 0.0
2018-Jun-21 04:30N 35°37' E 139°47'0 0.0
2018-Jun-21 04:00N 35°37' E 139°47'0 0.0
2018-Jun-21 03:27N 35°37' E 139°47'0 0.0
2018-Jun-21 02:54N 35°37' E 139°47'0 0.0
2018-Jun-21 02:21N 35°37' E 139°47'0 0.0
2018-Jun-21 02:00N 35°37' E 139°47'0 0.0
2018-Jun-21 01:30N 35°37' E 139°47'0 0.0
2018-Jun-21 01:00N 35°37' E 139°47'0 0.0
2018-Jun-21 00:21N 35°37' E 139°47'0 0.0
2018-Jun-20 23:57N 35°37' E 139°47'0 1.0
2018-Jun-20 23:30N 35°36' E 139°47'4 7.7
2018-Jun-20 23:00N 35°33' E 139°50'5 9.3
2018-Jun-20 22:30N 35°29' E 139°52'612.8
2018-Jun-20 22:00N 35°24' E 139°46'612.4
2018-Jun-20 21:30N 35°18' E 139°44'612.0
2018-Jun-20 21:00N 35°13' E 139°47'5 9.6
2018-Jun-20 20:30N 35°08' E 139°46'4 8.5
2018-Jun-20 20:00N 35°04' E 139°43'4 8.9
2018-Jun-20 19:30N 35°01' E 139°40'5 8.5
2018-Jun-20 18:57N 34°57' E 139°37'1 1.7
2018-Jun-20 18:28N 34°56' E 139°37'  

Dump ship's entire track history